Station Historical Data
 
Daily Summary for November 23, 2017 Units:  English    Metric   Both
« Previous Day
Next Day »
Daily Weekly Monthly Yearly Custom
  Current: High: Low: Average:
Temperature: 32.8 °F 41.5 °F 24.7 °F 33.4 °F
Dew Point: 22.0 °F 24.3 °F 18.7 °F 21.6 °F
Humidity: 64% 79% 45% 62%
Wind Speed: 1.8mph 9.2mph 0.0mph 3.9mph
Wind Gust: 40.3mph 40.3mph - -
WindWSW - - West
Pressure: 30.03 in 30.15 in 30.02 in -
Precipitation: 0.00 in      
Historical Graphs
 
 
Tabular Data for November 23, 2017
Time Temperature Dew Point Pressure Wind Wind Speed Wind Gust Humidity Rainfall Rate (Hourly) solar Conditions
00:04 33.1 °F 23.3 °F 30.12 in WNW 3.0 mph 40.3 mph 67% 0.00 in WeatherDisplay:10.37 W/m2 RA
00:09 32.8 °F 22.7 °F 30.12 in West 3.1 mph 40.3 mph 66% 0.00 in WeatherDisplay:10.37 W/m2 RA
00:19 32.5 °F 22.8 °F 30.12 in WNW 4.7 mph 40.3 mph 67% 0.00 in WeatherDisplay:10.37 W/m2 CLR
00:29 32.2 °F 22.5 °F 30.12 in NW 4.2 mph 40.3 mph 67% 0.00 in WeatherDisplay:10.37 W/m2 CLR
00:34 32.0 °F 22.6 °F 30.11 in WNW 4.0 mph 40.3 mph 68% 0.00 in WeatherDisplay:10.37 W/m2 CLR
00:39 31.9 °F 22.5 °F 30.12 in West 3.9 mph 40.3 mph 68% 0.00 in WeatherDisplay:10.37 W/m2 CLR
00:44 31.8 °F 22.4 °F 30.12 in WNW 4.6 mph 40.3 mph 68% 0.00 in WeatherDisplay:10.37 W/m2 CLR
00:49 31.7 °F 22.0 °F 30.12 in WNW 3.6 mph 40.3 mph 67% 0.00 in WeatherDisplay:10.37 W/m2 CLR
00:54 31.7 °F 22.0 °F 30.12 in NW 5.0 mph 40.3 mph 67% 0.00 in WeatherDisplay:10.37 W/m2 CLR
00:59 31.6 °F 21.9 °F 30.11 in NW 3.4 mph 40.3 mph 67% 0.00 in WeatherDisplay:10.37 W/m2 CLR
01:04 31.7 °F 22.0 °F 30.11 in NW 2.5 mph 40.3 mph 67% 0.00 in WeatherDisplay:10.37 W/m2 CLR
01:09 31.7 °F 22.0 °F 30.11 in NW 7.3 mph 40.3 mph 67% 0.00 in WeatherDisplay:10.37 W/m2 CLR
01:14 31.8 °F 21.7 °F 30.11 in West 4.3 mph 40.3 mph 66% 0.00 in WeatherDisplay:10.37 W/m2 CLR
01:19 31.9 °F 21.8 °F 30.12 in NNW 3.2 mph 40.3 mph 66% 0.00 in WeatherDisplay:10.37 W/m2 CLR
01:29 31.8 °F 21.7 °F 30.11 in NW 5.6 mph 40.3 mph 66% 0.00 in WeatherDisplay:10.37 W/m2 CLR
01:34 31.7 °F 21.6 °F 30.11 in North 6.2 mph 40.3 mph 66% 0.00 in WeatherDisplay:10.37 W/m2 CLR
01:39 31.8 °F 21.7 °F 30.11 in North 3.3 mph 40.3 mph 66% 0.00 in WeatherDisplay:10.37 W/m2 CLR
01:44 31.9 °F 21.5 °F 30.11 in NW 4.7 mph 40.3 mph 65% 0.00 in WeatherDisplay:10.37 W/m2 CLR
01:49 31.9 °F 21.8 °F 30.11 in WNW 4.8 mph 40.3 mph 66% 0.00 in WeatherDisplay:10.37 W/m2 CLR
01:54 31.7 °F 21.3 °F 30.11 in NW 7.4 mph 40.3 mph 65% 0.00 in WeatherDisplay:10.37 W/m2 CLR
01:59 31.7 °F 21.3 °F 30.11 in WNW 6.1 mph 40.3 mph 65% 0.00 in WeatherDisplay:10.37 W/m2 CLR
02:04 31.7 °F 21.3 °F 30.11 in WNW 8.9 mph 40.3 mph 65% 0.00 in WeatherDisplay:10.37 W/m2 CLR
02:09 31.6 °F 21.5 °F 30.11 in WNW 3.3 mph 40.3 mph 66% 0.00 in WeatherDisplay:10.37 W/m2 CLR
02:14 31.5 °F 21.1 °F 30.11 in North 8.2 mph 40.3 mph 65% 0.00 in WeatherDisplay:10.37 W/m2 CLR
02:19 31.4 °F 21.0 °F 30.10 in NW 7.8 mph 40.3 mph 65% 0.00 in WeatherDisplay:10.37 W/m2 CLR
02:29 31.3 °F 20.9 °F 30.10 in NW 8.4 mph 40.3 mph 65% 0.00 in WeatherDisplay:10.37 W/m2 CLR
02:39 31.4 °F 20.6 °F 30.10 in NW 5.9 mph 40.3 mph 64% 0.00 in WeatherDisplay:10.37 W/m2 CLR
02:44 31.4 °F 20.6 °F 30.10 in NNW 7.9 mph 40.3 mph 64% 0.00 in WeatherDisplay:10.37 W/m2 CLR
02:54 31.3 °F 20.5 °F 30.10 in NW 4.1 mph 40.3 mph 64% 0.00 in WeatherDisplay:10.37 W/m2 CLR
02:59 31.2 °F 20.4 °F 30.10 in NW 6.0 mph 10.0 mph 64% 0.00 in WeatherDisplay:10.37 W/m2 CLR
03:14 30.8 °F 20.0 °F 30.11 in NW 6.0 mph 10.0 mph 64% 0.00 in WeatherDisplay:10.37 W/m2 CLR
03:19 30.7 °F 20.3 °F 30.11 in WNW 1.3 mph 40.3 mph 65% 0.00 in WeatherDisplay:10.37 W/m2 CLR
03:24 30.6 °F 20.5 °F 30.12 in WNW 5.0 mph 7.0 mph 66% 0.00 in WeatherDisplay:10.37 W/m2 CLR
03:34 30.2 °F 20.2 °F 30.11 in NW 4.0 mph 40.3 mph 66% 0.00 in WeatherDisplay:10.37 W/m2 CLR
03:39 30.0 °F 20.4 °F 30.11 in NNW 2.7 mph 40.3 mph 67% 0.00 in WeatherDisplay:10.37 W/m2 CLR
03:44 29.8 °F 20.2 °F 30.11 in NNW 3.2 mph 40.3 mph 67% 0.00 in WeatherDisplay:10.37 W/m2 CLR
03:49 29.6 °F 20.0 °F 30.10 in NNW 2.2 mph 40.3 mph 67% 0.00 in WeatherDisplay:10.37 W/m2 CLR
03:54 29.6 °F 20.0 °F 30.10 in North 3.3 mph 40.3 mph 67% 0.00 in WeatherDisplay:10.37 W/m2 CLR
03:59 29.6 °F 20.0 °F 30.10 in NNW 3.6 mph 40.3 mph 67% 0.00 in WeatherDisplay:10.37 W/m2 CLR
04:09 29.4 °F 20.1 °F 30.10 in NNW 3.1 mph 40.3 mph 68% 0.00 in WeatherDisplay:10.37 W/m2 CLR
04:14 29.3 °F 20.0 °F 30.10 in North 4.1 mph 40.3 mph 68% 0.00 in WeatherDisplay:10.37 W/m2 CLR
04:19 29.2 °F 19.9 °F 30.10 in WNW 5.4 mph 40.3 mph 68% 0.00 in WeatherDisplay:10.37 W/m2 CLR
04:24 29.2 °F 19.9 °F 30.11 in West 4.8 mph 40.3 mph 68% 0.00 in WeatherDisplay:10.37 W/m2 CLR
04:29 29.2 °F 20.3 °F 30.11 in WNW 2.9 mph 40.3 mph 69% 0.00 in WeatherDisplay:10.37 W/m2 CLR
04:34 29.0 °F 20.1 °F 30.11 in WNW 3.7 mph 40.3 mph 69% 0.00 in WeatherDisplay:10.37 W/m2 CLR
04:39 28.9 °F 20.0 °F 30.11 in WNW 2.3 mph 40.3 mph 69% 0.00 in WeatherDisplay:10.37 W/m2 CLR
04:44 28.8 °F 19.9 °F 30.11 in WSW 2.9 mph 40.3 mph 69% 0.00 in WeatherDisplay:10.37 W/m2 CLR
04:49 28.6 °F 19.7 °F 30.11 in West 1.7 mph 40.3 mph 69% 0.00 in WeatherDisplay:10.37 W/m2 CLR
04:54 28.5 °F 20.0 °F 30.11 in West 1.6 mph 40.3 mph 70% 0.00 in WeatherDisplay:10.37 W/m2 CLR
04:59 28.3 °F 19.8 °F 30.11 in West 1.1 mph 40.3 mph 70% 0.00 in WeatherDisplay:10.37 W/m2 CLR
05:04 28.1 °F 19.9 °F 30.11 in West 0.9 mph 40.3 mph 71% 0.00 in WeatherDisplay:10.37 W/m2 CLR
05:14 27.4 °F 19.9 °F 30.11 in West 2.1 mph 40.3 mph 73% 0.00 in WeatherDisplay:10.37 W/m2 CLR
05:19 27.1 °F 19.6 °F 30.12 in West 2.0 mph 4.0 mph 73% 0.00 in WeatherDisplay:10.37 W/m2 CLR
05:24 26.8 °F 19.6 °F 30.12 in West 1.2 mph 40.3 mph 74% 0.00 in WeatherDisplay:10.37 W/m2 CLR
05:29 26.7 °F 19.5 °F 30.12 in West 1.0 mph 2.0 mph 74% 0.00 in WeatherDisplay:10.37 W/m2 CLR
05:34 26.5 °F 19.3 °F 30.12 in Calm   40.3 mph 74% 0.00 in WeatherDisplay:10.37 W/m2 CLR
05:39 26.3 °F 19.1 °F 30.12 in Calm   40.3 mph 74% 0.00 in WeatherDisplay:10.37 W/m2 CLR
05:46 26.0 °F 19.2 °F 30.12 in West 1.3 mph 40.3 mph 75% 0.00 in WeatherDisplay:10.37 W/m2 CLR
05:51 25.9 °F 19.4 °F 30.12 in West 2.1 mph 40.3 mph 76% 0.00 in WeatherDisplay:10.37 W/m2 CLR
05:56 25.7 °F 19.2 °F 30.12 in West 2.7 mph 40.3 mph 76% 0.00 in WeatherDisplay:10.37 W/m2 CLR
06:01 25.6 °F 19.4 °F 30.12 in West 1.5 mph 40.3 mph 77% 0.00 in WeatherDisplay:10.37 W/m2 CLR
06:11 25.4 °F 19.2 °F 30.12 in West 2.1 mph 40.3 mph 77% 0.00 in WeatherDisplay:10.37 W/m2 CLR
06:16 25.4 °F 19.5 °F 30.12 in Calm   40.3 mph 78% 0.00 in WeatherDisplay:10.37 W/m2 CLR
06:21 25.4 °F 19.2 °F 30.12 in Calm   40.3 mph 77% 0.00 in WeatherDisplay:10.37 W/m2 CLR
06:26 25.3 °F 19.1 °F 30.12 in West 1.9 mph 40.3 mph 77% 0.00 in WeatherDisplay:10.37 W/m2 CLR
06:31 25.2 °F 19.0 °F 30.12 in West 1.1 mph 40.3 mph 77% 0.00 in WeatherDisplay:10.37 W/m2 CLR
06:36 25.2 °F 18.7 °F 30.12 in West 2.3 mph 40.3 mph 76% 0.00 in WeatherDisplay:10.37 W/m2 CLR
06:41 25.2 °F 19.3 °F 30.13 in West 1.5 mph 40.3 mph 78% 0.00 in WeatherDisplay:10.37 W/m2 CLR
06:51 25.0 °F 19.4 °F 30.13 in West 0.9 mph 40.3 mph 79% 0.00 in WeatherDisplay:10.37 W/m2 CLR
07:01 24.8 °F 19.2 °F 30.13 in West 2.1 mph 40.3 mph 79% 0.00 in WeatherDisplay:10.37 W/m2 CLR
07:11 24.7 °F 19.1 °F 30.13 in WNW 1.9 mph 40.3 mph 79% 0.00 in WeatherDisplay:10.37 W/m2 CLR
07:21 24.9 °F 19.3 °F 30.14 in West 2.1 mph 40.3 mph 79% 0.00 in WeatherDisplay:10.37 W/m2 CLR
07:26 25.2 °F 19.6 °F 30.14 in West 2.4 mph 40.3 mph 79% 0.00 in WeatherDisplay:10.37 W/m2 CLR
07:36 25.6 °F 19.7 °F 30.15 in West 2.8 mph 40.3 mph 78% 0.00 in WeatherDisplay:10.37 W/m2 CLR
08:01 27.5 °F 21.2 °F 30.15 in WNW 3.0 mph 40.3 mph 77% 0.00 in WeatherDisplay:10.37 W/m2 CLR
08:06 28.1 °F 21.5 °F 30.15 in WNW 4.0 mph 40.3 mph 76% 0.00 in WeatherDisplay:10.37 W/m2 CLR
08:16 29.1 °F 21.5 °F 30.15 in West 2.2 mph 40.3 mph 73% 0.00 in WeatherDisplay:10.37 W/m2 CLR
08:21 29.6 °F 21.3 °F 30.15 in WNW 2.5 mph 40.3 mph 71% 0.00 in WeatherDisplay:10.37 W/m2 CLR
08:31 30.6 °F 21.6 °F 30.15 in WNW 2.1 mph 40.3 mph 69% 0.00 in WeatherDisplay:10.37 W/m2 CLR
08:36 31.0 °F 21.3 °F 30.15 in NE 3.1 mph 40.3 mph 67% 0.00 in WeatherDisplay:10.37 W/m2 CLR
08:41 31.2 °F 21.5 °F 30.15 in NNW 2.8 mph 40.3 mph 67% 0.00 in WeatherDisplay:10.37 W/m2 CLR
08:46 31.5 °F 21.4 °F 30.15 in NW 4.9 mph 40.3 mph 66% 0.00 in WeatherDisplay:10.37 W/m2 CLR
08:51 31.6 °F 21.5 °F 30.15 in NW 5.4 mph 40.3 mph 66% 0.00 in WeatherDisplay:10.37 W/m2 CLR
08:56 31.7 °F 21.3 °F 30.15 in North 7.2 mph 40.3 mph 65% 0.00 in WeatherDisplay:10.37 W/m2 CLR
09:01 31.9 °F 21.5 °F 30.15 in WNW 6.6 mph 40.3 mph 65% 0.00 in WeatherDisplay:10.37 W/m2 CLR
09:06 32.0 °F 21.6 °F 30.15 in NW 3.8 mph 40.3 mph 65% 0.00 in WeatherDisplay:10.37 W/m2 CLR
09:11 32.3 °F 22.2 °F 30.15 in WNW 4.8 mph 40.3 mph 66% 0.00 in WeatherDisplay:10.37 W/m2 CLR
09:16 32.5 °F 21.7 °F 30.15 in NW 4.5 mph 40.3 mph 64% 0.00 in WeatherDisplay:10.37 W/m2 CLR
09:31 33.0 °F 21.8 °F 30.14 in NW 6.9 mph 40.3 mph 63% 0.00 in WeatherDisplay:10.37 W/m2 CLR
09:46 33.3 °F 21.7 °F 30.14 in NNW 8.7 mph 40.3 mph 62% 0.00 in WeatherDisplay:10.37 W/m2 CLR
09:51 33.4 °F 22.1 °F 30.13 in NW 7.7 mph 40.3 mph 63% 0.00 in WeatherDisplay:10.37 W/m2 CLR
09:56 33.7 °F 22.8 °F 30.13 in NNW 7.8 mph 40.3 mph 64% 0.00 in WeatherDisplay:10.37 W/m2 CLR
10:06 33.9 °F 22.2 °F 30.13 in WNW 6.7 mph 40.3 mph 62% 0.00 in WeatherDisplay:10.37 W/m2 CLR
10:21 34.5 °F 22.8 °F 30.13 in West 7.9 mph 40.3 mph 62% 0.00 in WeatherDisplay:10.37 W/m2 CLR
10:26 34.8 °F 23.1 °F 30.12 in West 6.8 mph 40.3 mph 62% 0.00 in WeatherDisplay:10.37 W/m2 CLR
10:36 34.8 °F 22.7 °F 30.12 in NNE 5.9 mph 40.3 mph 61% 0.00 in WeatherDisplay:10.37 W/m2 CLR
10:41 34.9 °F 22.4 °F 30.12 in NNE 8.6 mph 40.3 mph 60% 0.00 in WeatherDisplay:10.37 W/m2 CLR
10:51 35.5 °F 23.0 °F 30.12 in NNW 5.4 mph 40.3 mph 60% 0.00 in WeatherDisplay:10.37 W/m2 CLR
10:56 35.9 °F 23.4 °F 30.12 in North 4.1 mph 40.3 mph 60% 0.00 in WeatherDisplay:10.37 W/m2 CLR
11:01 36.1 °F 22.7 °F 30.12 in NNW 3.3 mph 40.3 mph 58% 0.00 in WeatherDisplay:10.37 W/m2 CLR
11:06 36.4 °F 23.0 °F 30.11 in NNE 5.1 mph 40.3 mph 58% 0.00 in WeatherDisplay:10.37 W/m2 CLR
11:16 36.4 °F 22.6 °F 30.11 in West 6.1 mph 40.3 mph 57% 0.00 in WeatherDisplay:10.37 W/m2 CLR
11:21 36.6 °F 22.8 °F 30.11 in NNE 4.8 mph 40.3 mph 57% 0.00 in WeatherDisplay:10.37 W/m2 CLR
11:26 36.7 °F 22.9 °F 30.10 in NW 4.2 mph 40.3 mph 57% 0.00 in WeatherDisplay:10.37 W/m2 CLR
11:31 36.9 °F 23.1 °F 30.10 in West 4.3 mph 40.3 mph 57% 0.00 in WeatherDisplay:10.37 W/m2 CLR
11:36 37.1 °F 23.7 °F 30.10 in NNW 6.1 mph 40.3 mph 58% 0.00 in WeatherDisplay:10.37 W/m2 CLR
11:41 37.2 °F 22.9 °F 30.10 in WNW 6.9 mph 40.3 mph 56% 0.00 in WeatherDisplay:10.37 W/m2 CLR
11:51 37.4 °F 22.7 °F 30.09 in WNW 4.8 mph 40.3 mph 55% 0.00 in WeatherDisplay:10.37 W/m2 CLR
11:56 37.5 °F 23.2 °F 30.09 in West 4.4 mph 40.3 mph 56% 0.00 in WeatherDisplay:10.37 W/m2 CLR
12:06 37.8 °F 24.3 °F 30.08 in WNW 6.5 mph 40.3 mph 58% 0.00 in WeatherDisplay:10.37 W/m2 CLR
12:11 38.1 °F 23.8 °F 30.08 in WNW 9.2 mph 40.3 mph 56% 0.00 in WeatherDisplay:10.37 W/m2 CLR
12:16 38.2 °F 23.4 °F 30.08 in NW 8.0 mph 40.3 mph 55% 0.00 in WeatherDisplay:10.37 W/m2 CLR
12:22 38.3 °F 23.1 °F 30.08 in NNE 5.7 mph 40.3 mph 54% 0.00 in WeatherDisplay:10.37 W/m2 CLR
12:27 38.5 °F 23.7 °F 30.07 in NW 7.0 mph 40.3 mph 55% 0.00 in WeatherDisplay:10.37 W/m2 CLR
12:32 38.7 °F 23.0 °F 30.07 in NW 6.6 mph 40.3 mph 53% 0.00 in WeatherDisplay:10.37 W/m2 CLR
12:37 38.9 °F 24.1 °F 30.07 in West 6.6 mph 40.3 mph 55% 0.00 in WeatherDisplay:10.37 W/m2 CLR
12:42 39.0 °F 23.7 °F 30.07 in North 2.7 mph 40.3 mph 54% 0.00 in WeatherDisplay:10.37 W/m2 CLR
12:47 38.9 °F 22.8 °F 30.07 in NNW 4.4 mph 40.3 mph 52% 0.00 in WeatherDisplay:10.37 W/m2 CLR
12:52 38.8 °F 22.7 °F 30.07 in North 4.8 mph 40.3 mph 52% 0.00 in WeatherDisplay:10.37 W/m2 CLR
12:57 39.0 °F 22.8 °F 30.06 in NW 7.8 mph 40.3 mph 52% 0.00 in WeatherDisplay:10.37 W/m2 CLR
13:02 39.2 °F 22.6 °F 30.06 in ENE 3.3 mph 40.3 mph 51% 0.00 in WeatherDisplay:10.37 W/m2 CLR
13:07 39.4 °F 22.8 °F 30.06 in WSW 6.7 mph 40.3 mph 51% 0.00 in WeatherDisplay:10.37 W/m2 CLR
13:12 39.6 °F 23.4 °F 30.06 in NW 5.5 mph 40.3 mph 52% 0.00 in WeatherDisplay:10.37 W/m2 CLR
13:17 39.8 °F 23.1 °F 30.06 in West 4.1 mph 40.3 mph 51% 0.00 in WeatherDisplay:10.37 W/m2 CLR
13:22 40.0 °F 23.3 °F 30.06 in NNW 5.3 mph 40.3 mph 51% 0.00 in WeatherDisplay:10.37 W/m2 CLR
13:27 40.0 °F 23.3 °F 30.06 in NNE 3.2 mph 40.3 mph 51% 0.00 in WeatherDisplay:10.37 W/m2 CLR
13:37 40.3 °F 23.6 °F 30.05 in WNW 3.6 mph 40.3 mph 51% 0.00 in WeatherDisplay:10.37 W/m2 CLR
13:42 40.3 °F 23.1 °F 30.05 in North 5.8 mph 40.3 mph 50% 0.00 in WeatherDisplay:10.37 W/m2 CLR
13:52 40.4 °F 23.7 °F 30.05 in West 6.9 mph 40.3 mph 51% 0.00 in WeatherDisplay:10.37 W/m2 CLR
13:57 40.6 °F 23.4 °F 30.05 in WNW 6.4 mph 40.3 mph 50% 0.00 in WeatherDisplay:10.37 W/m2 CLR
14:07 40.8 °F 23.6 °F 30.05 in WNW 4.2 mph 40.3 mph 50% 0.00 in WeatherDisplay:10.37 W/m2 CLR
14:12 41.0 °F 22.8 °F 30.05 in WSW 6.3 mph 40.3 mph 48% 0.00 in WeatherDisplay:10.37 W/m2 CLR
14:17 40.9 °F 22.7 °F 30.04 in West 1.9 mph 40.3 mph 48% 0.00 in WeatherDisplay:10.37 W/m2 CLR
14:22 40.8 °F 22.1 °F 30.04 in WNW 4.1 mph 40.3 mph 47% 0.00 in WeatherDisplay:10.37 W/m2 CLR
14:27 40.9 °F 22.2 °F 30.04 in West 4.4 mph 40.3 mph 47% 0.00 in WeatherDisplay:10.37 W/m2 CLR
14:32 41.0 °F 22.8 °F 30.04 in WNW 4.6 mph 40.3 mph 48% 0.00 in WeatherDisplay:10.37 W/m2 CLR
14:42 41.3 °F 23.1 °F 30.04 in WNW 6.5 mph 40.3 mph 48% 0.00 in WeatherDisplay:10.37 W/m2 CLR
14:47 41.3 °F 23.1 °F 30.04 in WNW 4.5 mph 40.3 mph 48% 0.00 in WeatherDisplay:10.37 W/m2 CLR
15:02 41.3 °F 22.1 °F 30.03 in NNW 3.8 mph 40.3 mph 46% 0.00 in WeatherDisplay:10.37 W/m2 CLR
15:12 41.3 °F 22.1 °F 30.03 in NNW 5.3 mph 40.3 mph 46% 0.00 in WeatherDisplay:10.37 W/m2 CLR
15:17 41.3 °F 23.6 °F 30.03 in NW 3.1 mph 40.3 mph 49% 0.00 in WeatherDisplay:10.37 W/m2 CLR
15:27 41.3 °F 21.5 °F 30.02 in NW 2.9 mph 40.3 mph 45% 0.00 in WeatherDisplay:10.37 W/m2 CLR
15:32 41.4 °F 21.6 °F 30.03 in WNW 2.1 mph 40.3 mph 45% 0.00 in WeatherDisplay:10.37 W/m2 CLR
15:37 41.4 °F 21.6 °F 30.03 in West 3.2 mph 40.3 mph 45% 0.00 in WeatherDisplay:10.37 W/m2 CLR
15:47 41.5 °F 22.2 °F 30.03 in WNW 1.6 mph 40.3 mph 46% 0.00 in WeatherDisplay:10.37 W/m2 CLR
16:07 41.2 °F 22.5 °F 30.03 in WNW 1.2 mph 40.3 mph 47% 0.00 in WeatherDisplay:10.37 W/m2 CLR
16:12 40.7 °F 22.5 °F 30.03 in WNW 2.7 mph 40.3 mph 48% 0.00 in WeatherDisplay:10.37 W/m2 CLR
16:17 40.0 °F 22.8 °F 30.03 in West 2.7 mph 40.3 mph 50% 0.00 in WeatherDisplay:10.37 W/m2 CLR
16:22 39.4 °F 22.8 °F 30.03 in WNW 2.4 mph 40.3 mph 51% 0.00 in WeatherDisplay:10.37 W/m2 CLR
16:27 38.8 °F 22.2 °F 30.03 in WNW 2.1 mph 40.3 mph 51% 0.00 in WeatherDisplay:10.37 W/m2 CLR
16:32 38.3 °F 22.2 °F 30.03 in WNW 1.7 mph 40.3 mph 52% 0.00 in WeatherDisplay:10.37 W/m2 CLR
16:37 37.9 °F 22.3 °F 30.03 in WNW 1.4 mph 40.3 mph 53% 0.00 in WeatherDisplay:10.37 W/m2 CLR
16:42 37.5 °F 21.9 °F 30.03 in WNW 1.9 mph 40.3 mph 53% 0.00 in WeatherDisplay:10.37 W/m2 CLR
16:52 36.7 °F 21.6 °F 30.03 in WNW 1.8 mph 40.3 mph 54% 0.00 in WeatherDisplay:10.37 W/m2 CLR
16:57 36.3 °F 21.7 °F 30.03 in WNW 1.9 mph 40.3 mph 55% 0.00 in WeatherDisplay:10.37 W/m2 CLR
17:02 35.9 °F 21.7 °F 30.03 in WNW 2.1 mph 40.3 mph 56% 0.00 in WeatherDisplay:10.37 W/m2 CLR
17:03 35.9 °F 21.7 °F 30.03 in WNW 1.5 mph 40.3 mph 56% 0.00 in WeatherDisplay:10.37 W/m2 CLR
17:08 35.5 °F 21.3 °F 30.03 in WNW 1.6 mph 40.3 mph 56% 0.00 in WeatherDisplay:10.37 W/m2 CLR
17:18 34.7 °F 21.8 °F 30.03 in WSW 2.5 mph 40.3 mph 59% 0.00 in WeatherDisplay:10.37 W/m2 CLR
17:23 34.4 °F 20.7 °F 30.03 in WSW 2.3 mph 40.3 mph 57% 0.00 in WeatherDisplay:10.37 W/m2 CLR
17:28 34.1 °F 21.3 °F 30.03 in WSW 1.6 mph 40.3 mph 59% 0.00 in WeatherDisplay:10.37 W/m2 CLR
17:33 34.0 °F 21.2 °F 30.04 in WSW 2.1 mph 40.3 mph 59% 0.00 in WeatherDisplay:10.37 W/m2 CLR
17:38 33.9 °F 21.1 °F 30.04 in WSW 2.5 mph 40.3 mph 59% 0.00 in WeatherDisplay:10.37 W/m2 CLR
17:43 33.9 °F 21.1 °F 30.04 in WSW 2.2 mph 40.3 mph 59% 0.00 in WeatherDisplay:10.37 W/m2 CLR
17:48 34.0 °F 21.2 °F 30.04 in WSW 2.4 mph 40.3 mph 59% 0.00 in WeatherDisplay:10.37 W/m2 CLR
17:53 34.0 °F 21.2 °F 30.04 in WSW 2.1 mph 40.3 mph 59% 0.00 in WeatherDisplay:10.37 W/m2 CLR
17:58 34.1 °F 21.3 °F 30.04 in WSW 2.4 mph 40.3 mph 59% 0.00 in WeatherDisplay:10.37 W/m2 CLR
18:03 33.9 °F 21.5 °F 30.04 in WSW 2.7 mph 40.3 mph 60% 0.00 in WeatherDisplay:10.37 W/m2 CLR
18:08 33.9 °F 21.5 °F 30.04 in WSW 2.4 mph 40.3 mph 60% 0.00 in WeatherDisplay:10.37 W/m2 CLR
18:13 33.8 °F 21.8 °F 30.04 in WSW 2.4 mph 40.3 mph 61% 0.00 in WeatherDisplay:10.37 W/m2 CLR
18:18 33.8 °F 21.8 °F 30.04 in WSW 2.7 mph 40.3 mph 61% 0.00 in WeatherDisplay:10.37 W/m2 CLR
18:28 33.7 °F 22.1 °F 30.04 in WSW 2.6 mph 40.3 mph 62% 0.00 in WeatherDisplay:10.37 W/m2 CLR
18:33 33.5 °F 21.9 °F 30.04 in WSW 2.8 mph 40.3 mph 62% 0.00 in WeatherDisplay:10.37 W/m2 CLR
18:38 33.4 °F 21.8 °F 30.04 in WSW 2.9 mph 40.3 mph 62% 0.00 in WeatherDisplay:10.37 W/m2 CLR
18:43 33.4 °F 21.8 °F 30.04 in WSW 2.1 mph 40.3 mph 62% 0.00 in WeatherDisplay:10.37 W/m2 CLR
18:48 33.3 °F 21.7 °F 30.04 in WSW 2.0 mph 40.3 mph 62% 0.00 in WeatherDisplay:10.37 W/m2 CLR
18:53 33.2 °F 22.0 °F 30.03 in WSW 2.3 mph 40.3 mph 63% 0.00 in WeatherDisplay:10.37 W/m2 CLR
18:58 33.0 °F 21.8 °F 30.03 in WSW 2.0 mph 40.3 mph 63% 0.00 in WeatherDisplay:10.37 W/m2 CLR
19:03 32.8 °F 22.0 °F 30.03 in WSW 1.8 mph 40.3 mph 64% 0.00 in WeatherDisplay:10.37 W/m2 CLR
East Vincent, PA, USA
Compliments of Weather Underground - 3 mb